createdAt,value
2019-03-25T00:01:11.331Z,2.83
2019-03-25T00:03:40.311Z,2.60
2019-03-25T00:06:08.952Z,2.10
2019-03-25T00:08:37.615Z,2.47
2019-03-25T00:11:06.334Z,2.53
2019-03-25T00:13:34.913Z,2.60
2019-03-25T00:16:03.882Z,2.73
2019-03-25T00:18:32.862Z,2.33
2019-03-25T00:21:01.434Z,2.17
2019-03-25T00:23:29.999Z,3.00
2019-03-25T00:25:58.663Z,3.10
2019-03-25T00:28:27.234Z,2.70
2019-03-25T00:30:55.853Z,2.33
2019-03-25T00:33:24.414Z,2.47
2019-03-25T00:35:53.141Z,2.57
2019-03-25T00:38:21.707Z,2.40
2019-03-25T00:40:50.597Z,2.00
2019-03-25T00:43:19.195Z,2.50
2019-03-25T00:45:48.103Z,2.40
2019-03-25T00:48:16.671Z,2.50
2019-03-25T00:50:45.259Z,1.97
2019-03-25T00:53:13.892Z,2.23
2019-03-25T00:55:42.502Z,2.00
2019-03-25T00:58:11.139Z,2.57
2019-03-25T01:00:39.901Z,2.37
2019-03-25T01:03:08.530Z,2.33
2019-03-25T01:05:37.109Z,2.43
2019-03-25T01:08:06.154Z,3.20
2019-03-25T01:10:34.915Z,2.30
2019-03-25T01:13:03.842Z,2.33
2019-03-25T01:15:32.865Z,2.07
2019-03-25T01:18:01.427Z,2.23
2019-03-25T01:20:30.150Z,2.33
2019-03-25T01:22:58.809Z,2.43
2019-03-25T01:25:27.887Z,3.90
2019-03-25T01:27:56.873Z,3.60
2019-03-25T01:30:25.470Z,2.60
2019-03-25T01:32:54.321Z,2.23
2019-03-25T01:35:23.288Z,1.87
2019-03-25T01:37:51.904Z,2.50
2019-03-25T01:40:20.841Z,2.10
2019-03-25T01:42:49.397Z,2.87
2019-03-25T01:45:17.997Z,2.20
2019-03-25T01:47:46.902Z,2.53
2019-03-25T01:50:15.518Z,2.40
2019-03-25T01:52:44.073Z,2.47
2019-03-25T01:55:13.602Z,2.10
2019-03-25T01:57:42.539Z,2.10
2019-03-25T02:00:11.779Z,2.50
2019-03-25T02:02:40.343Z,2.70
2019-03-25T02:05:09.021Z,2.40
2019-03-25T02:07:37.591Z,2.13
2019-03-25T02:10:07.930Z,2.03
2019-03-25T02:12:36.818Z,1.90
2019-03-25T02:15:06.559Z,2.07
2019-03-25T02:17:35.218Z,2.10
2019-03-25T02:20:05.431Z,2.10
2019-03-25T02:22:34.404Z,2.07
2019-03-25T02:25:03.576Z,2.00
2019-03-25T02:27:32.157Z,2.00
2019-03-25T02:30:00.725Z,2.30
2019-03-25T02:32:29.309Z,2.07
2019-03-25T02:34:57.889Z,1.87
2019-03-25T02:37:26.786Z,2.57
2019-03-25T02:39:55.346Z,2.77
2019-03-25T02:42:23.970Z,2.77
2019-03-25T02:44:52.545Z,2.20
2019-03-25T02:47:21.110Z,2.27
2019-03-25T02:49:49.685Z,2.00
2019-03-25T02:52:18.279Z,3.10
2019-03-25T02:54:47.168Z,2.60
2019-03-25T02:57:16.107Z,3.10
2019-03-25T02:59:45.091Z,1.90
2019-03-25T03:02:13.657Z,1.97
2019-03-25T03:04:42.215Z,2.37
2019-03-25T03:07:10.867Z,2.37
2019-03-25T03:09:39.799Z,2.30
2019-03-25T03:12:08.388Z,2.47
2019-03-25T03:14:36.971Z,2.00
2019-03-25T03:17:05.560Z,2.57
2019-03-25T03:19:34.130Z,2.40
2019-03-25T03:22:02.722Z,2.87
2019-03-25T03:24:31.280Z,2.20
2019-03-25T03:27:00.138Z,2.27
2019-03-25T03:29:28.804Z,2.90
2019-03-25T03:31:57.499Z,2.60
2019-03-25T03:34:26.093Z,2.73
2019-03-25T03:36:54.656Z,3.03
2019-03-25T03:39:23.231Z,2.10
2019-03-25T03:41:51.847Z,2.60
2019-03-25T03:44:20.413Z,2.93
2019-03-25T03:46:49.030Z,3.83
2019-03-25T03:49:17.576Z,2.30
2019-03-25T03:51:46.318Z,2.27
2019-03-25T03:54:15.520Z,2.50
2019-03-25T03:56:44.724Z,2.17
2019-03-25T03:59:13.840Z,2.40
2019-03-25T04:01:42.505Z,2.33
2019-03-25T04:04:11.070Z,2.70
2019-03-25T04:06:39.638Z,3.40
2019-03-25T04:09:08.289Z,2.37
2019-03-25T04:11:37.190Z,2.57
2019-03-25T04:14:06.292Z,3.27
2019-03-25T04:16:35.152Z,3.80
2019-03-25T04:19:03.752Z,2.50
2019-03-25T04:21:32.328Z,2.00
2019-03-25T04:24:00.906Z,2.70
2019-03-25T04:26:29.747Z,2.63
2019-03-25T04:28:58.523Z,2.43
2019-03-25T04:31:27.472Z,2.17
2019-03-25T04:33:56.067Z,3.17
2019-03-25T04:36:24.660Z,3.13
2019-03-25T04:38:53.241Z,2.53
2019-03-25T04:41:21.810Z,2.53
2019-03-25T04:43:50.694Z,2.17
2019-03-25T04:46:19.258Z,3.00
2019-03-25T04:48:47.849Z,2.43
2019-03-25T04:51:16.755Z,2.50
2019-03-25T04:53:45.646Z,2.00
2019-03-25T04:56:14.268Z,2.57
2019-03-25T04:58:42.858Z,2.43
2019-03-25T05:01:11.825Z,2.10
2019-03-25T05:03:40.702Z,2.60
2019-03-25T05:06:09.417Z,2.37
2019-03-25T05:08:38.078Z,1.90
2019-03-25T05:11:06.720Z,2.97
2019-03-25T05:13:35.318Z,2.50
2019-03-25T05:16:03.875Z,2.57
2019-03-25T05:18:32.852Z,2.73
2019-03-25T05:21:01.435Z,2.30
2019-03-25T05:23:30.025Z,2.13
2019-03-25T05:25:58.602Z,2.50
2019-03-25T05:28:27.198Z,2.67
2019-03-25T05:30:55.759Z,2.07
2019-03-25T05:33:24.351Z,2.80
2019-03-25T05:35:53.258Z,2.40
2019-03-25T05:38:21.854Z,2.70
2019-03-25T05:40:50.423Z,2.60
2019-03-25T05:43:21.139Z,2.50
2019-03-25T05:45:49.599Z,3.17
2019-03-25T05:48:18.192Z,2.83
2019-03-25T05:50:46.761Z,2.43
2019-03-25T05:53:15.324Z,3.10
2019-03-25T05:55:44.813Z,3.00
2019-03-25T05:58:13.761Z,3.80
2019-03-25T06:00:42.425Z,3.70
2019-03-25T06:03:10.990Z,3.57
2019-03-25T06:05:39.571Z,3.57
2019-03-25T06:08:08.142Z,3.57
2019-03-25T06:10:36.725Z,3.60
2019-03-25T06:13:05.664Z,3.87
2019-03-25T06:15:34.573Z,4.40
2019-03-25T06:18:03.179Z,4.70
2019-03-25T06:20:32.070Z,3.37
2019-03-25T06:23:00.644Z,3.53
2019-03-25T06:25:29.218Z,3.80
2019-03-25T06:27:57.795Z,2.40
2019-03-25T06:30:26.560Z,3.50
2019-03-25T06:32:55.131Z,3.43
2019-03-25T06:35:23.811Z,3.80
2019-03-25T06:37:52.375Z,3.33
2019-03-25T06:40:21.029Z,3.83
2019-03-25T06:42:49.665Z,4.57
2019-03-25T06:45:18.249Z,4.30
2019-03-25T06:47:46.815Z,4.37
2019-03-25T06:50:15.974Z,4.77
2019-03-25T06:52:44.485Z,3.77
2019-03-25T06:55:13.071Z,4.93
2019-03-25T06:57:41.898Z,4.13
2019-03-25T07:00:11.872Z,4.50
2019-03-25T07:02:40.558Z,5.70
2019-03-25T07:05:09.936Z,4.90
2019-03-25T07:07:38.493Z,5.13
2019-03-25T07:10:07.827Z,4.83
2019-03-25T07:12:37.835Z,4.43
2019-03-25T07:15:08.647Z,5.00
2019-03-25T07:17:37.214Z,4.83
2019-03-25T07:20:09.957Z,4.60
2019-03-25T07:22:38.862Z,4.80
2019-03-25T07:25:07.519Z,4.03
2019-03-25T07:27:37.282Z,4.33
2019-03-25T07:30:08.143Z,4.30
2019-03-25T07:32:36.723Z,4.73
2019-03-25T07:35:07.150Z,3.90
2019-03-25T07:37:35.739Z,4.10
2019-03-25T07:40:08.423Z,4.07
2019-03-25T07:42:37.321Z,3.93
2019-03-25T07:45:09.421Z,4.90
2019-03-25T07:47:48.273Z,4.73
2019-03-25T07:50:16.901Z,4.10
2019-03-25T07:52:45.457Z,4.00
2019-03-25T07:55:14.067Z,3.80
2019-03-25T07:57:48.233Z,3.50
2019-03-25T08:00:15.107Z,3.53
2019-03-25T08:02:43.751Z,3.10
2019-03-25T08:05:12.470Z,3.23
2019-03-25T08:07:41.058Z,3.30
2019-03-25T08:10:10.144Z,3.80
2019-03-25T08:12:38.732Z,3.57
2019-03-25T08:15:07.857Z,3.00
2019-03-25T08:17:36.415Z,3.00
2019-03-25T08:20:09.945Z,2.77
2019-03-25T08:22:38.715Z,2.50
2019-03-25T08:25:08.282Z,2.70
2019-03-25T08:27:37.016Z,2.77
2019-03-25T08:30:07.768Z,3.10
2019-03-25T08:32:36.365Z,3.07
2019-03-25T08:35:06.762Z,2.90
2019-03-25T08:37:35.350Z,4.10
2019-03-25T08:40:06.223Z,4.03
2019-03-25T08:42:34.820Z,2.93
2019-03-25T08:45:03.511Z,2.87
2019-03-25T08:47:32.126Z,2.40
2019-03-25T08:50:00.674Z,2.37
2019-03-25T08:52:29.397Z,2.60
2019-03-25T08:54:57.869Z,2.00
2019-03-25T08:57:26.469Z,2.30
2019-03-25T08:59:57.468Z,2.00
2019-03-25T09:02:25.328Z,1.90
2019-03-25T09:04:53.905Z,1.83
2019-03-25T09:07:22.523Z,1.63
2019-03-25T09:09:51.064Z,3.10
2019-03-25T09:12:19.686Z,1.80
2019-03-25T09:14:48.283Z,2.30
2019-03-25T09:17:16.924Z,1.70
2019-03-25T09:19:45.476Z,1.37
2019-03-25T09:22:14.140Z,1.10
2019-03-25T09:24:42.697Z,1.10
2019-03-25T09:27:11.280Z,1.07
2019-03-25T09:29:39.850Z,0.90
2019-03-25T09:32:08.491Z,1.07
2019-03-25T09:34:37.121Z,1.10
2019-03-25T09:37:05.708Z,1.17
2019-03-25T09:39:34.271Z,1.10
2019-03-25T09:42:02.869Z,1.20
2019-03-25T09:44:31.414Z,1.00
2019-03-25T09:47:00.084Z,1.03
2019-03-25T09:49:28.646Z,0.80
2019-03-25T09:51:57.421Z,1.00
2019-03-25T09:54:26.047Z,1.30
2019-03-25T09:56:54.652Z,1.00
2019-03-25T09:59:23.217Z,1.37
2019-03-25T10:01:51.801Z,0.90
2019-03-25T10:04:20.355Z,1.30
2019-03-25T10:06:48.986Z,1.10
2019-03-25T10:09:17.705Z,0.83
2019-03-25T10:11:46.324Z,0.87
2019-03-25T10:14:14.926Z,1.47
2019-03-25T10:16:43.488Z,0.70
2019-03-25T10:19:12.176Z,1.40
2019-03-25T10:21:40.801Z,1.10
2019-03-25T10:24:09.435Z,1.10
2019-03-25T10:26:38.011Z,1.37
2019-03-25T10:29:06.638Z,0.80
2019-03-25T10:31:35.554Z,1.27
2019-03-25T10:34:04.138Z,1.10
2019-03-25T10:36:32.700Z,0.90
2019-03-25T10:39:01.273Z,1.00
2019-03-25T10:41:29.836Z,0.70
2019-03-25T10:43:58.434Z,0.53
2019-03-25T10:46:26.996Z,0.97
2019-03-25T10:48:55.589Z,0.90
2019-03-25T10:51:24.199Z,0.60
2019-03-25T10:53:52.773Z,0.87
2019-03-25T10:56:21.388Z,0.90
2019-03-25T10:58:57.857Z,1.10
2019-03-25T11:01:20.269Z,0.70
2019-03-25T11:03:48.866Z,1.40
2019-03-25T11:06:17.634Z,0.60
2019-03-25T11:08:46.304Z,0.60
2019-03-25T11:11:14.869Z,0.40
2019-03-25T11:13:43.458Z,0.40
2019-03-25T11:16:12.025Z,0.30
2019-03-25T11:18:40.793Z,0.40
2019-03-25T11:21:09.381Z,0.30
2019-03-25T11:23:38.009Z,0.40
2019-03-25T11:26:06.707Z,0.30
2019-03-25T11:28:35.308Z,0.50
2019-03-25T11:31:03.910Z,1.07
2019-03-25T11:33:32.512Z,1.47
2019-03-25T11:36:02.770Z,0.70
2019-03-25T11:38:31.630Z,0.60
2019-03-25T11:41:00.200Z,0.47
2019-03-25T11:43:28.782Z,0.77
2019-03-25T11:45:57.800Z,0.50
2019-03-25T11:48:26.424Z,1.07
2019-03-25T11:50:55.422Z,1.10
2019-03-25T11:53:24.035Z,0.60
2019-03-25T11:55:52.607Z,0.67
2019-03-25T11:58:21.233Z,0.43
2019-03-25T12:00:49.847Z,0.50
2019-03-25T12:03:18.975Z,0.50
2019-03-25T12:05:47.611Z,0.50
2019-03-25T12:08:16.262Z,1.37
2019-03-25T12:10:44.849Z,0.60
2019-03-25T12:13:13.416Z,0.60
2019-03-25T12:15:42.015Z,0.50
2019-03-25T12:18:10.591Z,0.40
2019-03-25T12:20:39.183Z,0.30
2019-03-25T12:23:08.042Z,0.40
2019-03-25T12:25:36.621Z,0.20
2019-03-25T12:28:05.913Z,0.33
2019-03-25T12:30:34.489Z,0.30
2019-03-25T12:33:04.258Z,0.30
2019-03-25T12:35:33.122Z,1.07
2019-03-25T12:38:02.121Z,0.40
2019-03-25T12:40:30.729Z,0.90
2019-03-25T12:42:59.347Z,0.40
2019-03-25T12:45:28.522Z,0.20
2019-03-25T12:47:57.238Z,0.87
2019-03-25T12:50:25.890Z,0.20
2019-03-25T12:52:54.815Z,0.40
2019-03-25T12:55:23.498Z,0.47
2019-03-25T12:57:52.058Z,0.50
2019-03-25T13:00:41.375Z,0.30
2019-03-25T13:03:09.919Z,0.40
2019-03-25T13:05:38.961Z,0.30
2019-03-25T13:08:07.539Z,0.40
2019-03-25T13:10:36.188Z,0.63
2019-03-25T13:13:04.918Z,0.20
2019-03-25T13:15:33.522Z,0.27
2019-03-25T13:18:02.103Z,0.40
2019-03-25T13:20:30.679Z,0.30
2019-03-25T13:22:59.566Z,0.40
2019-03-25T13:25:28.211Z,0.33
2019-03-25T13:27:56.778Z,0.40
2019-03-25T13:30:25.373Z,0.20
2019-03-25T13:32:54.105Z,0.50
2019-03-25T13:35:22.712Z,0.40
2019-03-25T13:37:51.265Z,0.60
2019-03-25T13:40:19.922Z,0.30
2019-03-25T13:42:48.932Z,0.20
2019-03-25T13:45:17.513Z,0.40
2019-03-25T13:47:46.099Z,0.50
2019-03-25T13:50:15.028Z,0.20
2019-03-25T13:52:43.585Z,0.20
2019-03-25T13:55:12.177Z,0.40
2019-03-25T13:57:40.752Z,10.63
2019-03-25T14:00:10.541Z,0.40
2019-03-25T14:02:39.106Z,0.50
2019-03-25T14:05:07.877Z,0.40
2019-03-25T14:07:36.860Z,0.50
2019-03-25T14:10:07.356Z,0.40
2019-03-25T14:12:35.941Z,0.20
2019-03-25T14:15:08.718Z,0.50
2019-03-25T14:17:37.295Z,0.27
2019-03-25T14:20:08.131Z,0.30
2019-03-25T14:22:36.714Z,0.40
2019-03-25T14:25:06.239Z,0.30
2019-03-25T14:27:34.806Z,0.63
2019-03-25T14:30:13.979Z,0.20
2019-03-25T14:32:35.079Z,0.33
2019-03-25T14:35:04.697Z,0.40
2019-03-25T14:37:33.306Z,0.57
2019-03-25T14:40:01.901Z,0.40
2019-03-25T14:42:30.516Z,0.40
2019-03-25T14:44:59.067Z,0.30
2019-03-25T14:47:28.480Z,0.47
2019-03-25T14:49:57.066Z,0.30
2019-03-25T14:52:25.667Z,0.37
2019-03-25T14:54:54.298Z,0.30
2019-03-25T14:57:22.914Z,0.30
2019-03-25T14:59:51.733Z,0.50
2019-03-25T15:02:20.330Z,0.80
2019-03-25T15:04:48.901Z,0.30
2019-03-25T15:07:17.494Z,0.30
2019-03-25T15:09:46.107Z,0.33
2019-03-25T15:12:14.721Z,0.30
2019-03-25T15:14:43.322Z,0.30
2019-03-25T15:17:12.267Z,0.40
2019-03-25T15:19:40.870Z,0.30
2019-03-25T15:22:09.507Z,0.97
2019-03-25T15:24:38.130Z,0.30
2019-03-25T15:27:07.240Z,0.30
2019-03-25T15:29:35.823Z,0.50
2019-03-25T15:32:04.422Z,0.50
2019-03-25T15:34:33.079Z,0.30
2019-03-25T15:37:01.723Z,0.30
2019-03-25T15:39:30.316Z,0.30
2019-03-25T15:41:58.983Z,0.50
2019-03-25T15:44:27.880Z,1.20
2019-03-25T15:46:56.777Z,1.53
2019-03-25T15:49:25.359Z,1.00
2019-03-25T15:51:53.949Z,0.77
2019-03-25T15:54:22.505Z,0.40
2019-03-25T15:56:51.099Z,0.40
2019-03-25T15:59:19.666Z,0.53
2019-03-25T16:01:48.299Z,0.47
2019-03-25T16:04:16.851Z,0.40
2019-03-25T16:06:45.595Z,0.40
2019-03-25T16:09:14.158Z,0.53
2019-03-25T16:11:43.176Z,0.47
2019-03-25T16:14:11.769Z,0.93
2019-03-25T16:16:40.742Z,0.80
2019-03-25T16:19:09.313Z,0.70
2019-03-25T16:21:38.002Z,1.30
2019-03-25T16:24:06.544Z,0.90
2019-03-25T16:26:35.135Z,0.60
2019-03-25T16:29:03.781Z,0.70
2019-03-25T16:31:32.392Z,0.53
2019-03-25T16:34:00.980Z,0.93
2019-03-25T16:36:29.555Z,1.03
2019-03-25T16:38:58.123Z,0.57
2019-03-25T16:41:26.717Z,0.30
2019-03-25T16:43:55.425Z,1.10
2019-03-25T16:46:24.012Z,0.30
2019-03-25T16:48:54.987Z,0.40
2019-03-25T16:51:22.871Z,0.60
2019-03-25T16:53:51.456Z,1.20
2019-03-25T16:56:20.019Z,0.50
2019-03-25T16:58:48.610Z,0.40
2019-03-25T17:01:17.183Z,0.60
2019-03-25T17:03:45.781Z,0.33
2019-03-25T17:06:14.375Z,0.30
2019-03-25T17:08:42.954Z,0.40
2019-03-25T17:11:11.620Z,0.57
2019-03-25T17:13:40.376Z,0.60
2019-03-25T17:16:08.921Z,0.60
2019-03-25T17:18:37.511Z,0.40
2019-03-25T17:21:06.488Z,0.90
2019-03-25T17:23:35.081Z,1.00
2019-03-25T17:26:03.915Z,1.10
2019-03-25T17:28:33.009Z,1.20
2019-03-25T17:31:03.096Z,1.20
2019-03-25T17:33:31.902Z,1.07
2019-03-25T17:36:00.463Z,0.90
2019-03-25T17:38:29.070Z,0.90
2019-03-25T17:40:57.856Z,1.07
2019-03-25T17:43:26.439Z,0.80
2019-03-25T17:45:55.008Z,0.60
2019-03-25T17:48:23.614Z,0.63
2019-03-25T17:50:53.042Z,1.27
2019-03-25T17:53:22.016Z,1.20
2019-03-25T17:55:50.501Z,3.57
2019-03-25T17:58:19.117Z,2.87
2019-03-25T18:00:50.753Z,1.00
2019-03-25T18:03:21.031Z,1.67
2019-03-25T18:05:49.588Z,1.10
2019-03-25T18:08:18.186Z,1.13
2019-03-25T18:10:46.807Z,1.10
2019-03-25T18:13:22.234Z,1.60
2019-03-25T18:15:45.687Z,1.10
2019-03-25T18:18:14.271Z,0.80
2019-03-25T18:20:47.436Z,0.73
2019-03-25T18:23:16.128Z,1.40
2019-03-25T18:25:44.677Z,0.90
2019-03-25T18:28:13.254Z,1.57
2019-03-25T18:30:41.831Z,1.07
2019-03-25T18:33:10.560Z,0.93
2019-03-25T18:35:39.147Z,0.80
2019-03-25T18:38:07.713Z,1.40
2019-03-25T18:40:36.388Z,1.00
2019-03-25T18:43:05.286Z,1.00
2019-03-25T18:45:34.128Z,0.97
2019-03-25T18:48:02.707Z,4.53
2019-03-25T18:50:31.657Z,3.53
2019-03-25T18:53:00.668Z,1.67
2019-03-25T18:55:29.191Z,1.07
2019-03-25T18:57:57.753Z,1.03
2019-03-25T19:00:34.190Z,1.20
2019-03-25T19:03:03.002Z,0.83
2019-03-25T19:05:31.638Z,1.87
2019-03-25T19:08:02.857Z,1.53
2019-03-25T19:10:32.027Z,0.90
2019-03-25T19:13:00.556Z,1.10
2019-03-25T19:15:29.165Z,1.17
2019-03-25T19:17:58.335Z,1.00
2019-03-25T19:20:26.950Z,1.37
2019-03-25T19:22:55.543Z,1.27
2019-03-25T19:25:24.186Z,1.30
2019-03-25T19:27:52.665Z,1.03
2019-03-25T19:30:21.278Z,2.60
2019-03-25T19:32:49.863Z,1.17
2019-03-25T19:35:18.459Z,1.40
2019-03-25T19:37:47.038Z,0.60
2019-03-25T19:40:15.618Z,1.47
2019-03-25T19:42:44.218Z,1.90
2019-03-25T19:45:13.268Z,1.00
2019-03-25T19:47:42.018Z,0.90
2019-03-25T19:50:11.460Z,1.00
2019-03-25T19:52:39.974Z,1.00
2019-03-25T19:55:08.580Z,0.80
2019-03-25T19:57:37.149Z,0.67
2019-03-25T20:00:10.343Z,1.00
2019-03-25T20:02:38.928Z,0.80
2019-03-25T20:05:08.586Z,0.80
2019-03-25T20:07:37.522Z,1.50
2019-03-25T20:10:07.757Z,0.90
2019-03-25T20:12:36.359Z,0.80
2019-03-25T20:15:07.237Z,1.10
2019-03-25T20:17:35.777Z,1.13
2019-03-25T20:20:06.730Z,0.90
2019-03-25T20:22:35.318Z,0.80
2019-03-25T20:25:06.166Z,0.90
2019-03-25T20:27:34.732Z,1.50
2019-03-25T20:30:04.963Z,2.60
2019-03-25T20:32:33.516Z,2.03
2019-03-25T20:35:02.162Z,1.00
2019-03-25T20:37:30.773Z,0.87
2019-03-25T20:39:59.451Z,0.90
2019-03-25T20:42:28.029Z,0.90
2019-03-25T20:44:56.623Z,1.40
2019-03-25T20:47:25.224Z,1.20
2019-03-25T20:49:53.780Z,1.10
2019-03-25T20:52:24.433Z,1.10
2019-03-25T20:54:52.583Z,1.10
2019-03-25T20:57:21.450Z,2.87
2019-03-25T20:59:50.139Z,2.73
2019-03-25T21:02:18.679Z,2.03
2019-03-25T21:04:47.277Z,1.37
2019-03-25T21:07:15.870Z,1.07
2019-03-25T21:09:44.456Z,1.10
2019-03-25T21:12:13.073Z,1.10
2019-03-25T21:14:41.640Z,0.73
2019-03-25T21:17:10.197Z,1.20
2019-03-25T21:19:38.792Z,1.60
2019-03-25T21:22:07.373Z,1.30
2019-03-25T21:24:35.954Z,1.40
2019-03-25T21:27:04.620Z,1.53
2019-03-25T21:29:33.495Z,0.77
2019-03-25T21:32:02.089Z,1.43
2019-03-25T21:34:30.818Z,1.40
2019-03-25T21:36:59.402Z,2.47
2019-03-25T21:39:27.989Z,1.90
2019-03-25T21:41:56.666Z,1.03
2019-03-25T21:44:25.396Z,3.30
2019-03-25T21:46:54.250Z,3.70
2019-03-25T21:49:22.827Z,4.27
2019-03-25T21:51:51.707Z,2.83
2019-03-25T21:54:20.367Z,2.10
2019-03-25T21:56:48.997Z,1.33
2019-03-25T21:59:17.943Z,1.63
2019-03-25T22:01:46.558Z,1.27
2019-03-25T22:04:15.127Z,1.40
2019-03-25T22:06:43.732Z,0.90
2019-03-25T22:09:12.335Z,1.10
2019-03-25T22:11:40.929Z,1.77
2019-03-25T22:14:09.504Z,1.80
2019-03-25T22:16:38.100Z,1.40
2019-03-25T22:19:06.681Z,1.53
2019-03-25T22:21:35.608Z,1.37
2019-03-25T22:24:04.178Z,1.70
2019-03-25T22:26:32.765Z,1.77
2019-03-25T22:29:01.733Z,1.40
2019-03-25T22:31:30.323Z,1.80
2019-03-25T22:33:59.037Z,1.37
2019-03-25T22:36:27.627Z,1.47
2019-03-25T22:38:56.190Z,1.73
2019-03-25T22:41:24.789Z,1.73
2019-03-25T22:43:53.371Z,1.40
2019-03-25T22:46:21.982Z,3.03
2019-03-25T22:48:50.594Z,2.97
2019-03-25T22:51:19.171Z,2.10
2019-03-25T22:53:47.748Z,2.37
2019-03-25T22:56:16.410Z,2.20
2019-03-25T22:58:45.049Z,2.33
2019-03-25T23:01:13.685Z,2.40
2019-03-25T23:03:42.237Z,2.33
2019-03-25T23:06:10.960Z,2.90
2019-03-25T23:08:39.546Z,3.00
2019-03-25T23:11:08.155Z,2.97
2019-03-25T23:13:36.726Z,3.00
2019-03-25T23:16:05.679Z,2.90
2019-03-25T23:18:34.643Z,3.00
2019-03-25T23:21:03.234Z,3.00
2019-03-25T23:23:32.084Z,2.80
2019-03-25T23:26:00.699Z,2.63
2019-03-25T23:28:29.253Z,3.00
2019-03-25T23:30:57.819Z,2.93
2019-03-25T23:33:26.420Z,3.03
2019-03-25T23:35:55.054Z,2.80
2019-03-25T23:38:30.263Z,3.33
2019-03-25T23:41:14.233Z,3.30
2019-03-25T23:43:50.677Z,3.10
2019-03-25T23:46:30.014Z,2.97
2019-03-25T23:49:02.595Z,3.20
2019-03-25T23:51:46.256Z,2.40
2019-03-25T23:54:14.925Z,3.23
2019-03-25T23:56:43.628Z,3.00
2019-03-25T23:59:12.200Z,3.33
